Time;durP1;ratioP1;P1;durP2;ratioP2;P2;SDS_P1;SDS_P2;PMS_P1;PMS_P2;Temp;Humidity;BMP_temperature;BMP_pressure;BME280_temperature;BME280_humidity;BME280_pressure;Samples;Min_cycle;Max_cycle;Signal;HPM_P1;HPM_P2
2023/04/26 00:01:31;;;;;;;1.93;1.43;;;4.50;99.90;;;;;;5055063;28;20202;-73
2023/04/26 00:03:56;;;;;;;2.77;1.47;;;4.50;99.90;;;;;;5052542;28;20221;-74
2023/04/26 00:06:22;;;;;;;3.43;1.60;;;4.50;99.90;;;;;;5052746;28;20201;-73
2023/04/26 00:08:47;;;;;;;3.13;1.53;;;4.40;99.90;;;;;;5040406;28;20237;-73
2023/04/26 00:11:13;;;;;;;2.90;1.30;;;4.50;99.90;;;;;;5045415;28;20201;-73
2023/04/26 00:13:38;;;;;;;4.10;1.87;;;4.40;99.90;;;;;;5045476;28;20233;-73
2023/04/26 00:16:04;;;;;;;2.33;1.63;;;4.40;99.90;;;;;;5045853;28;20233;-71
2023/04/26 00:18:30;;;;;;;3.93;1.73;;;4.30;99.90;;;;;;5045461;28;20203;-72
2023/04/26 00:20:56;;;;;;;4.70;1.93;;;4.30;99.90;;;;;;5044579;28;20285;-72
2023/04/26 00:23:22;;;;;;;8.50;1.90;;;4.30;99.90;;;;;;5043728;28;20987;-72
2023/04/26 00:25:47;;;;;;;8.03;1.90;;;4.20;99.90;;;;;;5045280;28;20225;-72
2023/04/26 00:28:13;;;;;;;4.87;1.70;;;4.20;99.90;;;;;;5048938;28;20203;-72
2023/04/26 00:30:41;;;;;;;3.40;1.53;;;4.20;99.90;;;;;;5048388;28;20641;-71
2023/04/26 00:33:06;;;;;;;5.10;1.53;;;4.10;99.90;;;;;;5047980;28;20214;-73
2023/04/26 00:35:32;;;;;;;8.93;1.93;;;4.00;99.90;;;;;;5048663;28;20222;-71
2023/04/26 00:37:57;;;;;;;6.90;2.07;;;4.00;99.90;;;;;;5044508;28;20216;-72
2023/04/26 00:40:23;;;;;;;5.27;1.87;;;4.00;99.90;;;;;;5050180;28;20207;-72
2023/04/26 00:42:56;;;;;;;3.87;2.20;;;3.90;99.90;;;;;;5045827;28;20209;-74
2023/04/26 00:45:22;;;;;;;8.70;1.97;;;4.00;99.90;;;;;;5043523;28;20202;-62
2023/04/26 00:47:47;;;;;;;3.30;1.97;;;4.10;99.90;;;;;;5043543;28;20210;-62
2023/04/26 00:50:13;;;;;;;4.83;2.03;;;4.30;99.90;;;;;;5048204;28;20223;-62
2023/04/26 00:52:39;;;;;;;7.73;2.00;;;4.30;99.90;;;;;;5051779;28;20202;-62
2023/04/26 00:55:06;;;;;;;4.30;1.60;;;4.30;99.90;;;;;;5048264;28;20269;-62
2023/04/26 00:57:31;;;;;;;5.30;1.50;;;4.30;99.90;;;;;;5048278;28;20199;-62
2023/04/26 00:59:57;;;;;;;4.77;2.00;;;4.40;99.90;;;;;;5048452;28;20289;-62
2023/04/26 01:02:22;;;;;;;6.97;2.30;;;4.70;99.90;;;;;;5046167;28;20205;-76
2023/04/26 01:04:48;;;;;;;4.20;1.60;;;4.70;99.90;;;;;;5045891;28;20714;-72
2023/04/26 01:07:14;;;;;;;4.83;1.77;;;4.50;99.90;;;;;;5048036;28;20583;-73
2023/04/26 01:09:39;;;;;;;5.47;2.30;;;4.40;99.90;;;;;;5051406;28;20352;-73
2023/04/26 01:12:06;;;;;;;8.17;2.23;;;4.20;99.90;;;;;;5051274;28;20944;-74
2023/04/26 01:14:35;;;;;;;4.53;2.30;;;4.10;99.90;;;;;;5043732;28;20201;-73
2023/04/26 01:17:02;;;;;;;4.70;1.90;;;4.00;99.90;;;;;;5047109;28;20198;-74
2023/04/26 01:19:28;;;;;;;2.97;1.63;;;3.90;99.90;;;;;;5048983;28;20194;-72
2023/04/26 01:21:53;;;;;;;5.27;1.67;;;3.80;99.90;;;;;;5045726;28;20199;-70
2023/04/26 01:24:19;;;;;;;6.10;1.83;;;3.80;99.90;;;;;;5047285;28;20202;-72
2023/04/26 01:26:46;;;;;;;3.37;1.53;;;3.80;99.90;;;;;;5046636;28;20210;-73
2023/04/26 01:29:13;;;;;;;7.83;1.93;;;3.70;99.90;;;;;;5046878;28;20214;-72
2023/04/26 01:31:38;;;;;;;3.77;1.97;;;3.70;99.90;;;;;;5044761;28;20671;-73
2023/04/26 01:34:04;;;;;;;7.67;1.93;;;3.70;99.90;;;;;;5050143;28;20202;-73
2023/04/26 01:36:31;;;;;;;3.77;1.80;;;3.60;99.90;;;;;;5040702;28;20253;-73
2023/04/26 01:38:56;;;;;;;3.40;1.50;;;3.60;99.90;;;;;;5047086;28;20206;-72
2023/04/26 01:41:23;;;;;;;6.67;2.27;;;3.50;99.90;;;;;;5046318;28;20282;-72
2023/04/26 01:43:49;;;;;;;8.07;2.43;;;3.60;99.90;;;;;;5045851;28;20190;-72
2023/04/26 01:46:14;;;;;;;2.50;1.03;;;3.60;99.90;;;;;;5047305;28;20202;-72
2023/04/26 01:48:40;;;;;;;4.70;1.90;;;3.60;99.90;;;;;;5045497;28;20198;-72
2023/04/26 01:51:06;;;;;;;5.23;2.03;;;3.60;99.90;;;;;;5041486;28;20199;-72
2023/04/26 01:53:32;;;;;;;8.03;1.70;;;3.50;99.90;;;;;;5046301;28;20193;-73
2023/04/26 01:56:04;;;;;;;3.97;2.20;;;3.50;99.90;;;;;;5046872;28;20565;-73
2023/04/26 01:58:30;;;;;;;10.93;1.73;;;3.40;99.90;;;;;;5046121;28;20561;-74
2023/04/26 02:01:03;;;;;;;8.03;2.13;;;3.50;99.90;;;;;;5044449;28;20199;-70
2023/04/26 02:03:28;;;;;;;6.00;1.97;;;3.40;99.90;;;;;;5047103;28;20221;-73
2023/04/26 02:05:54;;;;;;;4.47;2.00;;;3.30;99.90;;;;;;5048202;28;20297;-74
2023/04/26 02:08:19;;;;;;;6.30;1.70;;;3.40;99.90;;;;;;5049454;28;20191;-73
2023/04/26 02:10:45;;;;;;;4.90;2.23;;;3.30;99.90;;;;;;5046183;28;20214;-73
2023/04/26 02:13:11;;;;;;;4.53;1.53;;;3.30;99.90;;;;;;5046069;28;20611;-73
2023/04/26 02:15:36;;;;;;;5.80;1.97;;;3.30;99.90;;;;;;5048203;28;20262;-72
2023/04/26 02:18:02;;;;;;;6.30;2.70;;;3.30;99.90;;;;;;5046585;28;20213;-73
2023/04/26 02:20:27;;;;;;;5.40;2.43;;;3.30;99.90;;;;;;5047696;28;20201;-73
2023/04/26 02:22:53;;;;;;;6.03;2.13;;;3.30;99.90;;;;;;5046434;28;20210;-73
2023/04/26 02:25:19;;;;;;;6.97;1.70;;;3.30;99.90;;;;;;5047630;28;20203;-73
2023/04/26 02:27:44;;;;;;;7.30;2.57;;;3.30;99.90;;;;;;5044874;28;20279;-73
2023/04/26 02:30:10;;;;;;;7.23;1.93;;;3.30;99.90;;;;;;5037671;28;20620;-73
2023/04/26 02:32:35;;;;;;;4.63;1.70;;;3.20;99.90;;;;;;5049398;28;20245;-72
2023/04/26 02:35:01;;;;;;;7.47;2.00;;;3.20;99.90;;;;;;5047308;28;20255;-73
2023/04/26 02:37:27;;;;;;;7.20;2.80;;;3.20;99.90;;;;;;5045495;28;20203;-72
2023/04/26 02:39:52;;;;;;;11.47;2.07;;;3.20;99.90;;;;;;5042639;28;20309;-72
2023/04/26 02:42:18;;;;;;;4.43;1.80;;;3.10;99.90;;;;;;5045706;28;20202;-72
2023/04/26 02:44:43;;;;;;;6.27;2.57;;;3.10;99.90;;;;;;5045528;28;20217;-73
2023/04/26 02:47:09;;;;;;;4.40;2.20;;;3.10;99.90;;;;;;5045550;28;20210;-73
2023/04/26 02:49:35;;;;;;;9.13;3.13;;;3.10;99.90;;;;;;5045479;28;20297;-73
2023/04/26 02:52:00;;;;;;;5.80;2.40;;;3.00;99.90;;;;;;5045615;28;20205;-72
2023/04/26 02:54:26;;;;;;;8.53;1.87;;;3.10;99.90;;;;;;5044106;28;20203;-73
2023/04/26 02:56:51;;;;;;;5.93;2.23;;;3.00;99.90;;;;;;5044925;28;20302;-73
2023/04/26 02:59:17;;;;;;;7.10;2.10;;;3.10;99.90;;;;;;5046521;28;20198;-71
2023/04/26 03:01:42;;;;;;;6.80;2.10;;;3.10;99.90;;;;;;5048533;28;20970;-83
2023/04/26 03:04:08;;;;;;;4.53;2.30;;;3.10;99.90;;;;;;5044773;28;20205;-73
2023/04/26 03:06:34;;;;;;;6.50;2.40;;;3.00;99.90;;;;;;5046308;28;20844;-79
2023/04/26 03:09:00;;;;;;;3.97;1.90;;;2.90;99.90;;;;;;5040876;28;20216;-72
2023/04/26 03:11:25;;;;;;;7.93;2.50;;;2.90;99.90;;;;;;5041530;28;20202;-72
2023/04/26 03:13:51;;;;;;;8.20;2.27;;;2.90;99.90;;;;;;5045504;28;20194;-71
2023/04/26 03:16:20;;;;;;;2.37;1.80;;;2.90;99.90;;;;;;5045511;28;20206;-72
2023/04/26 03:18:45;;;;;;;4.93;2.00;;;2.90;99.90;;;;;;5043221;28;20202;-72
2023/04/26 03:21:11;;;;;;;7.70;2.20;;;2.80;99.90;;;;;;5045902;28;20194;-73
2023/04/26 03:23:37;;;;;;;5.97;1.93;;;2.80;99.90;;;;;;5046053;28;20195;-72
2023/04/26 03:26:02;;;;;;;5.40;2.03;;;2.90;99.90;;;;;;5046797;28;20194;-72
2023/04/26 03:28:28;;;;;;;4.50;1.57;;;2.80;99.90;;;;;;5050520;28;20205;-72
2023/04/26 03:30:53;;;;;;;3.43;2.10;;;2.80;99.90;;;;;;5045463;28;20585;-72
2023/04/26 03:33:19;;;;;;;6.40;2.63;;;2.80;99.90;;;;;;5047685;28;20316;-73
2023/04/26 03:35:45;;;;;;;4.00;1.90;;;2.80;99.90;;;;;;5045640;28;20218;-72
2023/04/26 03:38:10;;;;;;;5.40;2.30;;;2.70;99.90;;;;;;5044324;28;20202;-73
2023/04/26 03:40:35;;;;;;;5.07;1.93;;;2.70;99.90;;;;;;5047661;28;20263;-73
2023/04/26 03:43:01;;;;;;;10.03;3.10;;;2.70;99.90;;;;;;5042014;28;20260;-73
2023/04/26 03:45:27;;;;;;;6.43;2.17;;;2.70;99.90;;;;;;5043388;28;20209;-73
2023/04/26 03:47:52;;;;;;;7.83;2.50;;;2.70;99.90;;;;;;5045538;28;20696;-72
2023/04/26 03:50:18;;;;;;;7.57;2.80;;;2.70;99.90;;;;;;5048735;28;20213;-72
2023/04/26 03:52:44;;;;;;;6.87;2.27;;;2.60;99.90;;;;;;5046394;28;20791;-72
2023/04/26 03:55:10;;;;;;;4.90;2.03;;;2.60;99.90;;;;;;5045502;28;20224;-73
2023/04/26 03:57:36;;;;;;;5.80;2.10;;;2.60;99.90;;;;;;5046142;28;20213;-72
2023/04/26 04:00:07;;;;;;;5.90;2.23;;;2.60;99.90;;;;;;5044316;28;20194;-72
2023/04/26 04:02:33;;;;;;;6.87;2.53;;;2.70;99.90;;;;;;5049527;28;20217;-73
2023/04/26 04:04:58;;;;;;;3.67;2.20;;;2.70;99.90;;;;;;5054271;28;20206;-73
2023/04/26 04:07:24;;;;;;;5.97;2.30;;;2.70;99.90;;;;;;5048788;28;20292;-73
2023/04/26 04:09:50;;;;;;;11.07;2.60;;;2.80;99.90;;;;;;5043267;28;20211;-73
2023/04/26 04:12:15;;;;;;;5.87;1.97;;;2.70;99.90;;;;;;5049506;28;20317;-72
2023/04/26 04:14:41;;;;;;;5.47;2.23;;;2.70;99.90;;;;;;5049218;28;20312;-72
2023/04/26 04:17:07;;;;;;;8.77;2.73;;;2.70;99.90;;;;;;5049129;28;20344;-72
2023/04/26 04:19:32;;;;;;;5.57;2.67;;;2.70;99.90;;;;;;5049521;28;20199;-72
2023/04/26 04:21:58;;;;;;;7.60;4.07;;;2.80;99.90;;;;;;5048865;28;20202;-73
2023/04/26 04:24:24;;;;;;;8.53;2.90;;;2.80;99.90;;;;;;5048212;28;20199;-72
2023/04/26 04:26:50;;;;;;;6.17;3.63;;;2.80;99.90;;;;;;5044025;28;20210;-72
2023/04/26 04:29:15;;;;;;;6.60;2.50;;;2.80;99.90;;;;;;5047541;28;20715;-72
2023/04/26 04:31:41;;;;;;;6.93;2.43;;;2.80;99.90;;;;;;5048146;28;20195;-72
2023/04/26 04:34:07;;;;;;;8.40;2.93;;;2.90;99.90;;;;;;5047703;28;20203;-73
2023/04/26 04:36:33;;;;;;;10.77;2.83;;;2.90;99.90;;;;;;5049734;28;20468;-72
2023/04/26 04:38:58;;;;;;;8.07;2.70;;;2.90;99.90;;;;;;5045234;28;20229;-72
2023/04/26 04:41:24;;;;;;;9.67;2.30;;;3.00;99.90;;;;;;5048697;28;20669;-72
2023/04/26 04:43:49;;;;;;;6.47;2.47;;;3.00;99.90;;;;;;5058201;28;20377;-72
2023/04/26 04:46:15;;;;;;;6.03;2.83;;;3.00;99.90;;;;;;5057211;28;20198;-72
2023/04/26 04:48:41;;;;;;;7.67;2.23;;;3.10;99.90;;;;;;5056070;28;20210;-72
2023/04/26 04:51:06;;;;;;;7.23;2.77;;;3.10;99.90;;;;;;5057492;28;20602;-72
2023/04/26 04:53:32;;;;;;;11.03;2.93;;;3.10;99.90;;;;;;5052637;28;20278;-73
2023/04/26 04:55:58;;;;;;;3.90;2.37;;;3.20;99.90;;;;;;5057643;28;20878;-72
2023/04/26 04:58:23;;;;;;;5.77;2.90;;;3.20;99.90;;;;;;5052219;28;20669;-71
2023/04/26 05:00:50;;;;;;;6.43;2.50;;;3.30;99.90;;;;;;5057971;28;20202;-73
2023/04/26 05:03:15;;;;;;;8.73;2.47;;;3.30;99.90;;;;;;5048810;28;20206;-73
2023/04/26 05:05:41;;;;;;;7.57;3.20;;;3.30;99.90;;;;;;5058710;28;20267;-74
2023/04/26 05:08:07;;;;;;;6.00;2.63;;;3.40;99.90;;;;;;5057571;28;20233;-72
2023/04/26 05:10:34;;;;;;;7.30;2.73;;;3.40;99.90;;;;;;5055890;28;20306;-73
2023/04/26 05:12:59;;;;;;;8.13;3.13;;;3.40;99.90;;;;;;5056671;28;20720;-72
2023/04/26 05:15:25;;;;;;;7.17;3.30;;;3.50;99.90;;;;;;5055766;28;20277;-72
2023/04/26 05:17:50;;;;;;;6.13;2.90;;;3.60;99.90;;;;;;5057611;28;20446;-72
2023/04/26 05:20:16;;;;;;;9.13;2.80;;;3.60;99.90;;;;;;5057271;28;20684;-72
2023/04/26 05:22:41;;;;;;;9.10;3.23;;;3.70;99.90;;;;;;5057409;28;20546;-73
2023/04/26 05:25:08;;;;;;;11.37;3.50;;;3.80;99.90;;;;;;5055214;28;20277;-72
2023/04/26 05:27:33;;;;;;;2.67;2.33;;;3.80;99.90;;;;;;5054881;28;20194;-72
2023/04/26 05:30:03;;;;;;;5.67;2.70;;;3.90;99.90;;;;;;5053453;28;20210;-73
2023/04/26 05:32:29;;;;;;;9.73;3.40;;;3.90;99.90;;;;;;5055604;28;20206;-72
2023/04/26 05:34:54;;;;;;;8.70;3.70;;;4.00;99.90;;;;;;5057077;28;20905;-72
2023/04/26 05:37:20;;;;;;;9.30;3.50;;;4.10;99.90;;;;;;5054959;28;20195;-74
2023/04/26 05:39:45;;;;;;;13.07;4.17;;;4.20;99.90;;;;;;5057185;28;20471;-73
2023/04/26 05:42:11;;;;;;;9.80;3.33;;;4.20;99.90;;;;;;5057110;28;20271;-73
2023/04/26 05:44:36;;;;;;;8.10;2.73;;;4.30;99.90;;;;;;5056965;28;20943;-74
2023/04/26 05:47:02;;;;;;;10.50;4.30;;;4.30;99.90;;;;;;5055331;28;20198;-74
2023/04/26 05:49:27;;;;;;;10.23;4.03;;;4.40;99.90;;;;;;5056651;28;20209;-74
2023/04/26 05:51:53;;;;;;;6.90;2.87;;;4.40;99.90;;;;;;5056595;28;20217;-73
2023/04/26 05:54:18;;;;;;;12.27;3.47;;;4.50;99.90;;;;;;5056655;28;20578;-72
2023/04/26 05:56:44;;;;;;;9.40;3.50;;;4.60;99.90;;;;;;5049154;28;20260;-73
2023/04/26 05:59:11;;;;;;;9.97;4.30;;;4.60;99.90;;;;;;5050998;28;20199;-73
2023/04/26 06:01:36;;;;;;;6.03;3.20;;;4.60;99.90;;;;;;5054074;28;20287;-73
2023/04/26 06:04:02;;;;;;;8.13;3.77;;;4.60;99.90;;;;;;5056871;28;20214;-73
2023/04/26 06:06:27;;;;;;;6.50;2.97;;;4.80;99.90;;;;;;5054866;28;20209;-73
2023/04/26 06:08:53;;;;;;;8.13;3.40;;;4.90;99.90;;;;;;5056248;28;20194;-73
2023/04/26 06:11:18;;;;;;;6.77;3.03;;;4.90;99.90;;;;;;5056212;28;20274;-73
2023/04/26 06:13:44;;;;;;;5.83;2.77;;;5.00;99.90;;;;;;5056733;28;20202;-73
2023/04/26 06:16:10;;;;;;;8.13;2.43;;;5.10;99.90;;;;;;5055177;28;20650;-73
2023/04/26 06:18:35;;;;;;;11.90;4.23;;;5.10;99.90;;;;;;5056406;28;20206;-72
2023/04/26 06:21:01;;;;;;;7.87;2.20;;;5.10;99.90;;;;;;5055967;28;20202;-74
2023/04/26 06:23:26;;;;;;;6.07;2.63;;;5.30;99.90;;;;;;5056577;28;20289;-73
2023/04/26 06:25:52;;;;;;;9.07;4.03;;;5.40;99.90;;;;;;5056054;28;20248;-73
2023/04/26 06:28:17;;;;;;;5.73;3.53;;;5.30;99.90;;;;;;5052611;28;20225;-73
2023/04/26 06:30:43;;;;;;;4.23;2.43;;;5.50;99.90;;;;;;5056158;28;20216;-73
2023/04/26 06:33:08;;;;;;;7.53;2.53;;;5.60;99.90;;;;;;5054324;28;20201;-73
2023/04/26 06:35:41;;;;;;;5.37;2.70;;;5.70;99.90;;;;;;5056036;28;20928;-72
2023/04/26 06:38:08;;;;;;;7.30;2.03;;;5.80;99.90;;;;;;5055135;28;20201;-72
2023/04/26 06:40:35;;;;;;;5.60;2.57;;;6.00;99.90;;;;;;5048384;28;20198;-73
2023/04/26 06:43:02;;;;;;;6.90;2.13;;;6.20;99.90;;;;;;5046299;28;20194;-71
2023/04/26 06:45:27;;;;;;;5.87;2.50;;;6.10;99.90;;;;;;5046298;28;20191;-71
2023/04/26 06:47:53;;;;;;;10.37;2.73;;;6.10;99.90;;;;;;5046361;28;20198;-71
2023/04/26 06:50:19;;;;;;;5.90;2.53;;;6.30;99.90;;;;;;5046953;28;20213;-72
2023/04/26 06:52:44;;;;;;;8.13;2.10;;;6.40;99.90;;;;;;5043783;28;20631;-71
2023/04/26 06:55:10;;;;;;;4.97;2.50;;;6.40;99.90;;;;;;5040678;28;20691;-71
2023/04/26 06:57:36;;;;;;;6.87;2.20;;;6.30;99.90;;;;;;5044289;28;20338;-72
2023/04/26 07:00:03;;;;;;;5.17;2.13;;;6.30;99.90;;;;;;5045666;28;20190;-72
2023/04/26 07:02:28;;;;;;;7.03;2.30;;;6.40;99.90;;;;;;5051741;28;20205;-72
2023/04/26 07:04:54;;;;;;;5.13;2.67;;;6.30;99.90;;;;;;5044662;28;20321;-73
2023/04/26 07:07:20;;;;;;;4.07;2.63;;;6.30;99.90;;;;;;5041311;28;20205;-72
2023/04/26 07:09:46;;;;;;;8.13;2.97;;;6.30;99.90;;;;;;5055751;28;20722;-73
2023/04/26 07:12:11;;;;;;;7.67;2.30;;;6.50;99.90;;;;;;5055854;28;20205;-73
2023/04/26 07:14:41;;;;;;;5.60;2.97;;;6.50;99.90;;;;;;5055783;28;20281;-72
2023/04/26 07:17:08;;;;;;;8.70;3.57;;;6.60;99.90;;;;;;5053511;28;20204;-72
2023/04/26 07:19:33;;;;;;;9.97;3.00;;;6.80;99.90;;;;;;5055530;28;20284;-73
2023/04/26 07:21:59;;;;;;;10.80;2.57;;;7.00;99.90;;;;;;5054703;28;20288;-74
2023/04/26 07:24:24;;;;;;;9.97;2.70;;;6.90;99.90;;;;;;5053311;28;20701;-73
2023/04/26 07:26:50;;;;;;;6.83;2.47;;;6.90;99.90;;;;;;5050135;28;20197;-73
2023/04/26 07:29:17;;;;;;;6.37;2.57;;;7.00;99.90;;;;;;5055445;28;20301;-74
2023/04/26 07:31:43;;;;;;;9.10;2.10;;;7.20;99.90;;;;;;5054030;28;20198;-73
2023/04/26 07:34:08;;;;;;;7.53;2.47;;;7.20;99.90;;;;;;5055043;28;20204;-72
2023/04/26 07:36:34;;;;;;;7.77;3.10;;;7.10;99.90;;;;;;5059170;28;20300;-73
2023/04/26 07:38:59;;;;;;;8.57;2.93;;;7.10;99.90;;;;;;5055159;28;20196;-73
2023/04/26 07:41:25;;;;;;;5.40;2.70;;;7.20;99.90;;;;;;5054740;28;20226;-72
2023/04/26 07:43:51;;;;;;;7.87;2.20;;;7.50;99.90;;;;;;5056221;28;20202;-73
2023/04/26 07:46:16;;;;;;;7.73;2.63;;;7.70;99.90;;;;;;5059443;28;20268;-73
2023/04/26 07:48:42;;;;;;;6.13;2.67;;;7.90;99.90;;;;;;5054754;28;20746;-73
2023/04/26 07:51:10;;;;;;;11.10;2.47;;;8.00;99.90;;;;;;5058848;28;20234;-73
2023/04/26 07:53:37;;;;;;;3.83;2.07;;;8.10;99.90;;;;;;5058815;28;20973;-73
2023/04/26 07:56:07;;;;;;;5.43;3.03;;;8.00;99.90;;;;;;5051622;28;20576;-74
2023/04/26 07:58:33;;;;;;;8.13;2.60;;;8.10;99.90;;;;;;5054573;28;20251;-71
2023/04/26 08:00:59;;;;;;;8.40;2.53;;;8.20;99.90;;;;;;5059314;28;20198;-72
2023/04/26 08:03:26;;;;;;;10.50;2.77;;;8.20;99.90;;;;;;5057656;28;20650;-71
2023/04/26 08:05:52;;;;;;;6.43;3.80;;;8.00;99.90;;;;;;5056834;28;20793;-71
2023/04/26 08:08:18;;;;;;;4.70;2.20;;;7.90;99.90;;;;;;5053660;28;20286;-72
2023/04/26 08:10:44;;;;;;;8.27;2.27;;;7.90;99.90;;;;;;5053964;28;20634;-71
2023/04/26 08:13:09;;;;;;;8.93;2.80;;;7.80;99.90;;;;;;5058498;28;20862;-71
2023/04/26 08:15:35;;;;;;;6.00;2.70;;;7.90;99.90;;;;;;5059092;28;20217;-71
2023/04/26 08:18:00;;;;;;;6.20;2.10;;;7.90;99.90;;;;;;5058510;28;20954;-73
2023/04/26 08:20:26;;;;;;;6.70;1.83;;;8.00;99.90;;;;;;5056882;28;20687;-74
2023/04/26 08:22:58;;;;;;;7.30;2.73;;;8.10;99.90;;;;;;5058246;28;20202;-73
2023/04/26 08:25:24;;;;;;;7.10;2.10;;;8.10;99.90;;;;;;5058350;28;20672;-64
2023/04/26 08:27:50;;;;;;;6.03;2.00;;;7.90;99.90;;;;;;5045053;28;20202;-64
2023/04/26 08:30:16;;;;;;;9.23;2.40;;;8.00;99.90;;;;;;5050890;28;20218;-63
2023/04/26 08:32:41;;;;;;;6.17;2.43;;;7.80;99.90;;;;;;5058276;28;20722;-63
2023/04/26 08:35:08;;;;;;;5.80;2.53;;;7.60;99.90;;;;;;5058584;28;20225;-64
2023/04/26 08:37:35;;;;;;;8.20;2.60;;;7.60;99.90;;;;;;5058248;28;20255;-64
2023/04/26 08:40:00;;;;;;;5.93;1.90;;;7.80;99.90;;;;;;5058281;28;20248;-64
2023/04/26 08:42:27;;;;;;;6.27;2.53;;;7.90;99.90;;;;;;5058668;28;20607;-65
2023/04/26 08:44:53;;;;;;;9.57;3.17;;;8.10;99.90;;;;;;5051620;28;20212;-64
2023/04/26 08:47:30;;;;;;;4.33;2.00;;;8.40;99.90;;;;;;5056829;28;20205;-64
2023/04/26 08:50:02;;;;;;;7.03;2.10;;;8.50;99.90;;;;;;5056972;28;20241;-64
2023/04/26 08:52:29;;;;;;;5.90;1.70;;;8.90;99.90;;;;;;5058169;28;20201;-64
2023/04/26 08:54:56;;;;;;;4.53;1.90;;;9.20;99.90;;;;;;5053676;28;20203;-64
2023/04/26 08:57:23;;;;;;;7.97;1.90;;;9.20;99.50;;;;;;5057819;28;20197;-64
2023/04/26 08:59:50;;;;;;;8.67;2.43;;;9.10;99.90;;;;;;5057206;28;20717;-65
2023/04/26 09:02:22;;;;;;;4.90;2.10;;;8.90;99.90;;;;;;5049936;28;20206;-64
2023/04/26 09:04:49;;;;;;;3.63;1.70;;;8.90;99.90;;;;;;5053085;28;20210;-64
2023/04/26 09:07:20;;;;;;;3.87;2.47;;;8.80;99.90;;;;;;5057818;28;20827;-63
2023/04/26 09:09:51;;;;;;;3.90;1.73;;;8.80;99.80;;;;;;5057478;28;20220;-64
2023/04/26 09:12:19;;;;;;;4.83;1.83;;;8.90;99.40;;;;;;5057517;28;20251;-64
2023/04/26 09:14:46;;;;;;;6.97;1.80;;;8.90;99.50;;;;;;5057942;28;20652;-63
2023/04/26 09:17:28;;;;;;;5.40;1.80;;;9.20;99.30;;;;;;5058323;28;20196;-64
2023/04/26 09:19:53;;;;;;;4.90;2.00;;;9.20;98.30;;;;;;5055388;28;20225;-63
2023/04/26 09:22:30;;;;;;;3.83;1.53;;;9.20;98.20;;;;;;5054735;28;20641;-63
2023/04/26 09:24:56;;;;;;;6.07;1.63;;;9.30;98.70;;;;;;5054594;28;20203;-63
2023/04/26 09:27:30;;;;;;;5.10;1.70;;;9.30;97.80;;;;;;5052654;28;20208;-63
2023/04/26 09:30:04;;;;;;;5.17;1.67;;;9.30;98.00;;;;;;5053412;28;20211;-63
2023/04/26 09:32:55;;;;;;;3.93;1.30;;;9.50;97.60;;;;;;5056667;28;20200;-63
2023/04/26 09:35:31;;;;;;;6.37;2.07;;;9.70;97.00;;;;;;5054626;28;20210;-64
2023/04/26 09:38:02;;;;;;;5.03;1.80;;;9.80;97.10;;;;;;5057781;28;20198;-64
2023/04/26 09:40:39;;;;;;;3.97;1.60;;;9.70;97.00;;;;;;5057647;28;20203;-63
2023/04/26 09:43:06;;;;;;;2.33;1.70;;;9.60;95.90;;;;;;5056069;28;20305;-64
2023/04/26 09:45:41;;;;;;;5.57;1.73;;;9.60;95.40;;;;;;5055288;28;20205;-63
2023/04/26 09:48:21;;;;;;;5.00;1.67;;;9.70;95.10;;;;;;5054545;28;20207;-64
2023/04/26 09:50:48;;;;;;;5.53;2.53;;;10.00;94.10;;;;;;5056838;28;20222;-64
2023/04/26 09:53:40;;;;;;;7.17;2.03;;;10.00;93.70;;;;;;5059202;28;20257;-87
2023/04/26 09:56:20;;;;;;;4.27;1.50;;;9.80;94.30;;;;;;5050996;28;20363;-63
2023/04/26 09:58:46;;;;;;;5.10;1.93;;;9.90;94.30;;;;;;5041936;28;20206;-62
2023/04/26 10:01:19;;;;;;;5.43;1.60;;;9.80;93.00;;;;;;5057032;28;20683;-63
2023/04/26 10:03:45;;;;;;;4.20;2.20;;;9.60;93.00;;;;;;5056963;28;20329;-62
2023/04/26 10:06:14;;;;;;;3.73;1.90;;;9.60;93.00;;;;;;5055172;28;20372;-63
2023/04/26 10:08:40;;;;;;;3.60;2.17;;;9.70;93.70;;;;;;5050090;28;20210;-64
2023/04/26 10:11:12;;;;;;;3.27;1.93;;;9.80;92.30;;;;;;5040589;28;20827;-81
2023/04/26 10:13:40;;;;;;;4.00;1.33;;;9.60;90.80;;;;;;5040791;28;20645;-79
2023/04/26 10:16:09;;;;;;;6.70;2.17;;;9.50;90.40;;;;;;5045937;28;20192;-81
2023/04/26 10:18:35;;;;;;;4.27;1.80;;;9.30;91.40;;;;;;5044799;28;20391;-81
2023/04/26 10:21:18;;;;;;;3.90;2.27;;;9.30;91.50;;;;;;5047252;28;21154;-81
2023/04/26 10:23:44;;;;;;;3.60;1.87;;;9.20;91.60;;;;;;5040355;28;20220;-83
2023/04/26 10:26:51;;;;;;;5.40;2.17;;;9.10;91.90;;;;;;5042150;28;20201;-85
2023/04/26 10:29:18;;;;;;;6.83;1.60;;;8.90;92.20;;;;;;5038173;28;20210;-84
2023/04/26 10:32:04;;;;;;;8.17;2.77;;;8.70;94.80;;;;;;5048960;28;20204;-84
2023/04/26 10:34:32;;;;;;;5.77;1.93;;;8.40;96.20;;;;;;5044957;28;20236;-83
2023/04/26 10:37:15;;;;;;;6.47;1.90;;;8.50;96.30;;;;;;5039023;28;20245;-63
2023/04/26 10:39:45;;;;;;;5.47;1.90;;;8.70;96.00;;;;;;5046512;28;20208;-64
2023/04/26 10:42:21;;;;;;;5.53;1.90;;;8.90;96.60;;;;;;5039796;28;20276;-63
2023/04/26 10:44:48;;;;;;;3.33;1.80;;;9.20;95.50;;;;;;5045723;28;20200;-63
2023/04/26 10:47:21;;;;;;;9.00;2.20;;;9.40;94.40;;;;;;5045709;28;20228;-63
2023/04/26 10:49:47;;;;;;;3.43;2.20;;;9.50;94.00;;;;;;5038318;28;20213;-62
2023/04/26 10:52:19;;;;;;;5.37;2.27;;;9.70;94.00;;;;;;5045698;28;20196;-63
2023/04/26 10:54:56;;;;;;;5.07;2.63;;;9.70;93.50;;;;;;5042623;28;20725;-63
2023/04/26 10:57:41;;;;;;;5.80;2.57;;;9.70;93.00;;;;;;5038630;28;20235;-63
2023/04/26 11:00:12;;;;;;;2.90;2.10;;;9.60;93.40;;;;;;5035413;28;20210;-64
2023/04/26 11:03:03;;;;;;;5.17;2.33;;;9.50;93.40;;;;;;5046119;28;20242;-64
2023/04/26 11:05:54;;;;;;;4.63;2.57;;;9.50;93.60;;;;;;5042011;28;20200;-64
2023/04/26 11:08:24;;;;;;;5.43;2.30;;;9.60;93.00;;;;;;5038289;28;20208;-64
2023/04/26 11:11:10;;;;;;;4.63;2.47;;;9.60;93.20;;;;;;5045275;28;20805;-63
2023/04/26 11:13:38;;;;;;;7.40;2.17;;;9.60;91.90;;;;;;5040053;28;20257;-65
2023/04/26 11:16:05;;;;;;;4.33;2.87;;;9.70;92.50;;;;;;5037985;28;20257;-62
2023/04/26 11:18:32;;;;;;;5.27;2.20;;;9.80;91.60;;;;;;5037393;28;20202;-64
2023/04/26 11:20:58;;;;;;;3.73;2.13;;;9.90;91.00;;;;;;5040979;28;20199;-79
2023/04/26 11:23:26;;;;;;;5.37;2.30;;;10.10;90.20;;;;;;5056558;28;20413;-62
2023/04/26 11:25:53;;;;;;;8.60;3.17;;;10.40;90.40;;;;;;5052194;28;20208;-62
2023/04/26 11:28:21;;;;;;;4.27;2.63;;;10.50;90.70;;;;;;5055914;28;20698;-64
2023/04/26 11:30:48;;;;;;;5.83;2.77;;;10.40;90.60;;;;;;5056775;28;20227;-84
2023/04/26 11:33:22;;;;;;;3.77;2.63;;;10.20;90.20;;;;;;5056520;28;20233;-80
2023/04/26 11:35:48;;;;;;;2.60;2.40;;;10.00;90.10;;;;;;5054256;28;20219;-82
2023/04/26 11:38:14;;;;;;;5.17;3.07;;;10.00;90.60;;;;;;5047892;28;20742;-85
2023/04/26 11:40:40;;;;;;;8.07;2.77;;;10.00;89.80;;;;;;5045243;28;20218;-71
2023/04/26 11:43:07;;;;;;;6.23;2.83;;;9.90;91.20;;;;;;5045600;28;20254;-71
2023/04/26 11:45:35;;;;;;;10.10;3.00;;;10.00;90.50;;;;;;5045550;28;20731;-71
2023/04/26 11:48:04;;;;;;;3.43;2.17;;;9.80;90.70;;;;;;5043197;28;20697;-79
2023/04/26 11:50:32;;;;;;;4.53;2.17;;;9.70;90.90;;;;;;5041107;28;20209;-70
2023/04/26 11:53:01;;;;;;;11.20;5.60;;;9.70;90.50;;;;;;5045831;28;20690;-71
2023/04/26 11:55:29;;;;;;;6.10;2.70;;;9.70;90.80;;;;;;5044410;28;20219;-71
2023/04/26 11:57:55;;;;;;;3.73;2.13;;;10.10;90.20;;;;;;5045980;28;20257;-72
2023/04/26 12:00:21;;;;;;;4.83;2.67;;;10.40;90.00;;;;;;5036124;28;20604;-72
2023/04/26 12:02:48;;;;;;;9.13;2.83;;;10.60;87.30;;;;;;5041300;28;20240;-73
2023/04/26 12:05:30;;;;;;;4.50;1.90;;;11.00;84.70;;;;;;5042273;28;20589;-72
2023/04/26 12:07:59;;;;;;;4.80;2.37;;;11.50;81.50;;;;;;5040602;28;20683;-71
2023/04/26 12:10:31;;;;;;;4.17;2.40;;;12.10;80.70;;;;;;5045866;28;20220;-71
2023/04/26 12:12:58;;;;;;;3.50;2.17;;;12.00;79.20;;;;;;5038618;28;20205;-74
2023/04/26 12:15:28;;;;;;;8.13;2.20;;;11.70;80.40;;;;;;5042375;28;20202;-75
2023/04/26 12:18:08;;;;;;;5.07;2.70;;;11.30;82.40;;;;;;5040185;28;20200;-74
2023/04/26 12:20:36;;;;;;;4.53;2.83;;;10.50;83.50;;;;;;5047446;28;20208;-74
2023/04/26 12:23:06;;;;;;;6.60;2.80;;;9.90;87.00;;;;;;5038356;28;20278;-74
2023/04/26 12:25:33;;;;;;;4.17;2.47;;;9.80;90.00;;;;;;5054075;28;20426;-74
2023/04/26 12:28:00;;;;;;;8.93;3.07;;;9.60;90.30;;;;;;5039510;28;20197;-74
2023/04/26 12:30:28;;;;;;;6.60;2.50;;;9.60;91.50;;;;;;5037323;28;20246;-74
2023/04/26 12:32:54;;;;;;;5.03;2.73;;;9.70;91.40;;;;;;5040123;28;20210;-73
2023/04/26 12:35:19;;;;;;;4.20;2.50;;;9.70;91.80;;;;;;5041304;28;20238;-74
2023/04/26 12:37:46;;;;;;;4.93;2.70;;;9.70;91.40;;;;;;5038890;28;20208;-73
2023/04/26 12:40:12;;;;;;;5.73;2.83;;;9.80;91.30;;;;;;5039490;28;20603;-73
2023/04/26 12:42:38;;;;;;;3.67;2.37;;;10.00;90.90;;;;;;5037113;28;20209;-73
2023/04/26 12:45:04;;;;;;;3.67;2.47;;;10.20;90.80;;;;;;5038410;28;20211;-72
2023/04/26 12:47:30;;;;;;;2.83;2.53;;;10.80;89.40;;;;;;5041759;28;20228;-73
2023/04/26 12:49:57;;;;;;;5.47;2.03;;;11.30;88.00;;;;;;5042678;28;20513;-74
2023/04/26 12:52:23;;;;;;;6.13;3.00;;;12.10;87.80;;;;;;5041418;28;20205;-73
2023/04/26 12:54:48;;;;;;;5.03;2.30;;;13.30;84.10;;;;;;5040232;28;20206;-71
2023/04/26 12:57:14;;;;;;;5.30;2.37;;;14.40;78.20;;;;;;5035192;28;20268;-72